sensor_id;sensor_type;location;lat;lon;timestamp;pressure;altitude;pressure_sealevel;temperature;humidity
40982;BME280;26708;50.304;19.028;2023-09-19T00:02:00;97564.47;;;20.53;54.88
40982;BME280;26708;50.304;19.028;2023-09-19T00:04:08;97422.00;;;19.75;54.64
40982;BME280;26708;50.304;19.028;2023-09-19T00:06:13;97446.19;;;19.86;54.58
40982;BME280;26708;50.304;19.028;2023-09-19T00:08:19;97564.47;;;20.53;54.30
40982;BME280;26708;50.304;19.028;2023-09-19T00:10:26;97696.84;;;21.24;54.25
40982;BME280;26708;50.304;19.028;2023-09-19T00:12:32;97586.22;;;20.75;54.29
40982;BME280;26708;50.304;19.028;2023-09-19T00:14:38;97469.91;;;20.04;54.33
40982;BME280;26708;50.304;19.028;2023-09-19T00:16:42;97664.88;;;21.24;54.45
40982;BME280;26708;50.304;19.028;2023-09-19T00:18:48;97664.84;;;21.25;54.39
40982;BME280;26708;50.304;19.028;2023-09-19T00:20:59;97560.34;;;20.48;54.15
40982;BME280;26708;50.304;19.028;2023-09-19T00:23:06;97661.03;;;21.29;54.51
40982;BME280;26708;50.304;19.028;2023-09-19T00:25:11;97661.03;;;21.29;54.58
40982;BME280;26708;50.304;19.028;2023-09-19T00:27:17;97381.44;;;19.57;54.22
40982;BME280;26708;50.304;19.028;2023-09-19T00:29:23;97419.53;;;19.72;54.19
40982;BME280;26708;50.304;19.028;2023-09-19T00:31:30;97689.13;;;21.35;53.96
40982;BME280;26708;50.304;19.028;2023-09-19T00:33:35;97628.03;;;21.02;53.79
40982;BME280;26708;50.304;19.028;2023-09-19T00:35:47;97651.72;;;21.36;54.09
40982;BME280;26708;50.304;19.028;2023-09-19T00:37:56;97645.44;;;21.37;53.74
40982;BME280;26708;50.304;19.028;2023-09-19T00:40:01;97648.66;;;21.28;53.80
40982;BME280;26708;50.304;19.028;2023-09-19T00:42:04;97633.34;;;21.32;53.82
40982;BME280;26708;50.304;19.028;2023-09-19T00:44:09;97642.78;;;21.37;54.04
40982;BME280;26708;50.304;19.028;2023-09-19T00:46:17;97574.41;;;20.94;53.93
40982;BME280;26708;50.304;19.028;2023-09-19T00:48:23;97508.75;;;20.65;53.81
40982;BME280;26708;50.304;19.028;2023-09-19T00:50:30;97588.13;;;21.02;53.78
40982;BME280;26708;50.304;19.028;2023-09-19T00:52:37;97528.19;;;20.81;54.11
40982;BME280;26708;50.304;19.028;2023-09-19T00:54:46;97563.00;;;21.06;53.74
40982;BME280;26708;50.304;19.028;2023-09-19T00:56:51;97627.00;;;21.34;53.81
40982;BME280;26708;50.304;19.028;2023-09-19T00:58:57;97626.53;;;21.28;53.97
40982;BME280;26708;50.304;19.028;2023-09-19T01:00:59;97472.56;;;20.34;54.15
40982;BME280;26708;50.304;19.028;2023-09-19T01:03:05;97500.81;;;20.50;53.98
40982;BME280;26708;50.304;19.028;2023-09-19T01:05:09;97438.47;;;20.26;54.25
40982;BME280;26708;50.304;19.028;2023-09-19T01:07:15;97626.16;;;21.34;54.27
40982;BME280;26708;50.304;19.028;2023-09-19T01:09:21;97497.09;;;20.68;53.96
40982;BME280;26708;50.304;19.028;2023-09-19T01:11:36;97529.53;;;20.88;53.88
40982;BME280;26708;50.304;19.028;2023-09-19T01:13:54;97565.41;;;21.11;53.72
40982;BME280;26708;50.304;19.028;2023-09-19T01:16:15;97608.06;;;21.39;53.76
40982;BME280;26708;50.304;19.028;2023-09-19T01:18:38;97599.53;;;21.34;53.91
40982;BME280;26708;50.304;19.028;2023-09-19T01:21:05;97595.72;;;21.38;54.01
40982;BME280;26708;50.304;19.028;2023-09-19T01:23:23;97571.09;;;21.05;53.96
40982;BME280;26708;50.304;19.028;2023-09-19T01:26:05;97595.72;;;21.38;53.86
40982;BME280;26708;50.304;19.028;2023-09-19T01:28:28;97389.28;;;20.19;53.66
40982;BME280;26708;50.304;19.028;2023-09-19T01:30:44;97601.84;;;21.24;54.04
40982;BME280;26708;50.304;19.028;2023-09-19T01:32:52;97536.84;;;20.85;54.07
40982;BME280;26708;50.304;19.028;2023-09-19T01:34:59;97515.44;;;20.72;54.47
40982;BME280;26708;50.304;19.028;2023-09-19T01:37:07;97580.03;;;21.04;54.59
40982;BME280;26708;50.304;19.028;2023-09-19T01:39:13;97538.94;;;20.80;54.81
40982;BME280;26708;50.304;19.028;2023-09-19T01:41:36;97510.59;;;20.79;54.56
40982;BME280;26708;50.304;19.028;2023-09-19T01:43:49;97381.13;;;19.93;54.99
40982;BME280;26708;50.304;19.028;2023-09-19T01:46:06;97463.28;;;20.41;54.49
40982;BME280;26708;50.304;19.028;2023-09-19T01:48:28;97545.81;;;20.98;54.42
40982;BME280;26708;50.304;19.028;2023-09-19T01:50:52;97502.34;;;20.54;54.29
40982;BME280;26708;50.304;19.028;2023-09-19T01:53:08;97520.69;;;20.74;54.61
40982;BME280;26708;50.304;19.028;2023-09-19T01:55:21;97342.03;;;19.50;54.81
40982;BME280;26708;50.304;19.028;2023-09-19T01:57:30;97545.00;;;20.82;55.22
40982;BME280;26708;50.304;19.028;2023-09-19T01:59:45;97542.09;;;20.57;55.25
40982;BME280;26708;50.304;19.028;2023-09-19T02:01:58;97470.19;;;20.29;55.18
40982;BME280;26708;50.304;19.028;2023-09-19T02:04:05;97560.09;;;20.81;55.20
40982;BME280;26708;50.304;19.028;2023-09-19T02:06:14;97549.06;;;20.73;55.17
40982;BME280;26708;50.304;19.028;2023-09-19T02:08:21;97581.34;;;20.97;55.10
40982;BME280;26708;50.304;19.028;2023-09-19T02:10:27;97532.53;;;20.53;55.28
40982;BME280;26708;50.304;19.028;2023-09-19T02:12:33;97609.75;;;20.96;55.60
40982;BME280;26708;50.304;19.028;2023-09-19T02:14:40;97578.78;;;20.95;55.32
40982;BME280;26708;50.304;19.028;2023-09-19T02:16:45;97507.41;;;20.58;55.20
40982;BME280;26708;50.304;19.028;2023-09-19T02:18:49;97338.28;;;19.54;55.42
40982;BME280;26708;50.304;19.028;2023-09-19T02:20:55;97535.44;;;20.64;55.42
40982;BME280;26708;50.304;19.028;2023-09-19T02:23:00;97538.34;;;20.75;55.48
40982;BME280;26708;50.304;19.028;2023-09-19T02:25:05;97421.78;;;20.09;55.44
40982;BME280;26708;50.304;19.028;2023-09-19T02:27:09;97375.53;;;19.97;55.05
40982;BME280;26708;50.304;19.028;2023-09-19T02:29:16;97345.34;;;19.69;55.06
40982;BME280;26708;50.304;19.028;2023-09-19T02:31:20;97479.34;;;20.53;55.16
40982;BME280;26708;50.304;19.028;2023-09-19T02:33:26;97367.03;;;19.61;55.17
40982;BME280;26708;50.304;19.028;2023-09-19T02:35:36;97293.16;;;19.38;55.38
40982;BME280;26708;50.304;19.028;2023-09-19T02:37:41;97610.34;;;21.01;55.62
40982;BME280;26708;50.304;19.028;2023-09-19T02:39:46;97440.88;;;20.15;54.97
40982;BME280;26708;50.304;19.028;2023-09-19T02:41:48;97579.19;;;21.03;55.17
40982;BME280;26708;50.304;19.028;2023-09-19T02:43:53;97368.63;;;19.79;55.26
40982;BME280;26708;50.304;19.028;2023-09-19T02:45:58;97528.66;;;20.74;55.35
40982;BME280;26708;50.304;19.028;2023-09-19T02:48:04;97568.88;;;20.97;55.32
40982;BME280;26708;50.304;19.028;2023-09-19T02:50:09;97574.41;;;20.94;55.13
40982;BME280;26708;50.304;19.028;2023-09-19T02:52:15;97437.28;;;20.16;55.36
40982;BME280;26708;50.304;19.028;2023-09-19T02:54:20;97563.84;;;20.93;55.39
40982;BME280;26708;50.304;19.028;2023-09-19T02:56:25;97564.78;;;20.92;55.12
40982;BME280;26708;50.304;19.028;2023-09-19T02:58:31;97563.16;;;20.89;55.21
40982;BME280;26708;50.304;19.028;2023-09-19T03:00:37;97446.06;;;20.03;55.22
40982;BME280;26708;50.304;19.028;2023-09-19T03:02:44;97566.69;;;20.90;55.39
40982;BME280;26708;50.304;19.028;2023-09-19T03:04:49;97533.25;;;20.57;55.33
40982;BME280;26708;50.304;19.028;2023-09-19T03:06:55;97357.34;;;19.60;55.50
40982;BME280;26708;50.304;19.028;2023-09-19T03:09:04;97524.81;;;20.64;55.49
40982;BME280;26708;50.304;19.028;2023-09-19T03:11:37;97436.25;;;20.19;56.12
40982;BME280;26708;50.304;19.028;2023-09-19T03:13:45;97570.72;;;20.97;56.99
40982;BME280;26708;50.304;19.028;2023-09-19T03:15:54;97256.91;;;19.08;57.40
40982;BME280;26708;50.304;19.028;2023-09-19T03:18:21;97415.88;;;20.04;57.69
40982;BME280;26708;50.304;19.028;2023-09-19T03:20:35;97553.56;;;20.87;57.63
40982;BME280;26708;50.304;19.028;2023-09-19T03:22:40;97606.34;;;20.94;57.86
40982;BME280;26708;50.304;19.028;2023-09-19T03:24:50;97377.63;;;19.77;57.68
40982;BME280;26708;50.304;19.028;2023-09-19T03:26:57;97422.19;;;19.87;57.76
40982;BME280;26708;50.304;19.028;2023-09-19T03:29:04;97584.28;;;20.92;58.20
40982;BME280;26708;50.304;19.028;2023-09-19T03:31:14;97278.81;;;19.27;58.25
40982;BME280;26708;50.304;19.028;2023-09-19T03:33:20;97592.28;;;20.92;58.58
40982;BME280;26708;50.304;19.028;2023-09-19T03:35:25;97592.16;;;20.94;58.51
40982;BME280;26708;50.304;19.028;2023-09-19T03:37:31;97515.91;;;20.65;58.52
40982;BME280;26708;50.304;19.028;2023-09-19T03:39:54;97448.72;;;20.32;58.84
40982;BME280;26708;50.304;19.028;2023-09-19T03:42:19;97605.13;;;21.00;59.02
40982;BME280;26708;50.304;19.028;2023-09-19T03:44:37;97549.22;;;21.00;59.08
40982;BME280;26708;50.304;19.028;2023-09-19T03:46:46;97421.59;;;20.12;59.31
40982;BME280;26708;50.304;19.028;2023-09-19T03:49:02;97547.22;;;21.03;59.16
40982;BME280;26708;50.304;19.028;2023-09-19T03:51:23;97556.94;;;21.04;59.43
40982;BME280;26708;50.304;19.028;2023-09-19T03:53:41;97507.75;;;20.82;60.38
40982;BME280;26708;50.304;19.028;2023-09-19T03:55:49;97558.75;;;21.04;60.55
40982;BME280;26708;50.304;19.028;2023-09-19T03:58:09;97557.97;;;21.02;60.27
40982;BME280;26708;50.304;19.028;2023-09-19T04:00:21;97497.38;;;20.63;60.99
40982;BME280;26708;50.304;19.028;2023-09-19T04:02:36;97416.56;;;20.07;61.58
40982;BME280;26708;50.304;19.028;2023-09-19T04:04:48;97487.25;;;20.54;61.89
40982;BME280;26708;50.304;19.028;2023-09-19T04:07:26;97424.88;;;20.01;62.50
40982;BME280;26708;50.304;19.028;2023-09-19T04:09:31;97553.81;;;20.68;62.97
40982;BME280;26708;50.304;19.028;2023-09-19T04:11:51;97552.47;;;20.62;63.84
40982;BME280;26708;50.304;19.028;2023-09-19T04:14:34;97318.78;;;19.24;64.00
40982;BME280;26708;50.304;19.028;2023-09-19T04:16:40;97532.31;;;20.42;64.61
40982;BME280;26708;50.304;19.028;2023-09-19T04:19:01;97487.38;;;20.08;64.81
40982;BME280;26708;50.304;19.028;2023-09-19T04:21:14;97546.72;;;20.38;65.13
40982;BME280;26708;50.304;19.028;2023-09-19T04:23:22;97370.47;;;19.32;65.46
40982;BME280;26708;50.304;19.028;2023-09-19T04:25:26;97418.75;;;19.54;65.41
40982;BME280;26708;50.304;19.028;2023-09-19T04:27:35;97390.69;;;19.50;65.53
40982;BME280;26708;50.304;19.028;2023-09-19T04:29:41;97476.06;;;20.05;65.91
40982;BME280;26708;50.304;19.028;2023-09-19T04:31:47;97493.19;;;20.15;65.96
40982;BME280;26708;50.304;19.028;2023-09-19T04:33:53;97501.19;;;20.15;66.05
40982;BME280;26708;50.304;19.028;2023-09-19T04:35:58;97484.03;;;20.05;66.06
40982;BME280;26708;50.304;19.028;2023-09-19T04:38:02;97226.47;;;18.68;66.03
40982;BME280;26708;50.304;19.028;2023-09-19T04:40:09;97537.03;;;20.53;66.25
40982;BME280;26708;50.304;19.028;2023-09-19T04:42:18;97375.53;;;19.52;66.26
40982;BME280;26708;50.304;19.028;2023-09-19T04:44:29;97491.03;;;20.21;66.20
40982;BME280;26708;50.304;19.028;2023-09-19T04:46:34;97398.00;;;19.76;66.75
40982;BME280;26708;50.304;19.028;2023-09-19T04:48:38;97352.44;;;19.39;66.59
40982;BME280;26708;50.304;19.028;2023-09-19T04:50:44;97447.63;;;19.91;67.11
40982;BME280;26708;50.304;19.028;2023-09-19T04:52:52;97475.50;;;20.29;67.12
40982;BME280;26708;50.304;19.028;2023-09-19T04:55:08;97376.06;;;19.73;67.17
40982;BME280;26708;50.304;19.028;2023-09-19T04:57:19;97533.66;;;20.64;67.42
40982;BME280;26708;50.304;19.028;2023-09-19T04:59:44;97531.75;;;20.66;67.52
40982;BME280;26708;50.304;19.028;2023-09-19T05:01:54;97400.69;;;19.92;67.48
40982;BME280;26708;50.304;19.028;2023-09-19T05:04:04;97549.25;;;20.70;67.46
40982;BME280;26708;50.304;19.028;2023-09-19T05:06:09;97509.56;;;20.52;67.18
40982;BME280;26708;50.304;19.028;2023-09-19T05:08:34;97531.94;;;20.63;67.31
40982;BME280;26708;50.304;19.028;2023-09-19T05:10:42;97396.06;;;19.64;67.60
40982;BME280;26708;50.304;19.028;2023-09-19T05:12:46;97502.94;;;20.30;67.36
40982;BME280;26708;50.304;19.028;2023-09-19T05:14:57;97554.03;;;20.79;67.30
40982;BME280;26708;50.304;19.028;2023-09-19T05:17:02;97483.69;;;20.40;67.34
40982;BME280;26708;50.304;19.028;2023-09-19T05:21:52;97513.16;;;20.51;66.96
40982;BME280;26708;50.304;19.028;2023-09-19T05:24:07;97570.41;;;20.87;66.89
40982;BME280;26708;50.304;19.028;2023-09-19T05:26:23;97441.44;;;20.06;66.64
40982;BME280;26708;50.304;19.028;2023-09-19T05:28:46;97575.63;;;20.89;66.88
40982;BME280;26708;50.304;19.028;2023-09-19T05:30:56;97583.50;;;20.90;67.00
40982;BME280;26708;50.304;19.028;2023-09-19T05:33:06;97560.22;;;20.80;66.28
40982;BME280;26708;50.304;19.028;2023-09-19T05:35:13;97532.22;;;20.59;65.53
40982;BME280;26708;50.304;19.028;2023-09-19T05:37:20;97444.69;;;19.96;64.43
40982;BME280;26708;50.304;19.028;2023-09-19T05:39:34;97510.19;;;20.42;64.44
40982;BME280;26708;50.304;19.028;2023-09-19T05:41:46;97441.09;;;19.97;64.07
40982;BME280;26708;50.304;19.028;2023-09-19T05:44:23;97576.28;;;20.78;64.15
40982;BME280;26708;50.304;19.028;2023-09-19T05:46:46;97573.88;;;20.74;63.90
40982;BME280;26708;50.304;19.028;2023-09-19T05:48:53;97471.94;;;19.99;63.63
40982;BME280;26708;50.304;19.028;2023-09-19T05:51:08;97586.59;;;20.69;63.81
40982;BME280;26708;50.304;19.028;2023-09-19T05:53:15;97585.81;;;20.67;63.84
40982;BME280;26708;50.304;19.028;2023-09-19T05:55:23;97590.53;;;20.62;63.80
40982;BME280;26708;50.304;19.028;2023-09-19T05:57:31;97592.25;;;20.63;63.92
40982;BME280;26708;50.304;19.028;2023-09-19T05:59:47;97610.13;;;20.61;63.83
40982;BME280;26708;50.304;19.028;2023-09-19T06:02:02;97607.53;;;20.59;64.07
40982;BME280;26708;50.304;19.028;2023-09-19T06:04:12;97601.44;;;20.58;64.07
40982;BME280;26708;50.304;19.028;2023-09-19T06:06:17;97526.28;;;20.09;63.63
40982;BME280;26708;50.304;19.028;2023-09-19T06:08:35;97493.03;;;19.71;63.96
40982;BME280;26708;50.304;19.028;2023-09-19T06:10:41;97538.38;;;20.15;63.70
40982;BME280;26708;50.304;19.028;2023-09-19T06:12:53;97634.38;;;20.55;64.19
40982;BME280;26708;50.304;19.028;2023-09-19T06:15:08;97641.44;;;20.56;63.97
40982;BME280;26708;50.304;19.028;2023-09-19T06:17:26;97549.59;;;20.20;63.75
40982;BME280;26708;50.304;19.028;2023-09-19T06:19:32;97624.56;;;20.57;63.76
40982;BME280;26708;50.304;19.028;2023-09-19T06:21:37;97576.59;;;20.28;63.92
40982;BME280;26708;50.304;19.028;2023-09-19T06:23:47;97621.19;;;20.53;63.96
40982;BME280;26708;50.304;19.028;2023-09-19T06:25:52;97434.44;;;19.43;64.02
40982;BME280;26708;50.304;19.028;2023-09-19T06:28:00;97633.59;;;20.53;63.85
40982;BME280;26708;50.304;19.028;2023-09-19T06:30:11;97630.34;;;20.48;64.19
40982;BME280;26708;50.304;19.028;2023-09-19T06:32:26;97467.06;;;19.45;64.13
40982;BME280;26708;50.304;19.028;2023-09-19T06:34:33;97494.22;;;19.50;64.30
40982;BME280;26708;50.304;19.028;2023-09-19T06:36:36;97472.38;;;19.45;64.52
40982;BME280;26708;50.304;19.028;2023-09-19T06:38:44;97617.06;;;20.33;64.57
40982;BME280;26708;50.304;19.028;2023-09-19T06:40:58;97641.34;;;20.42;64.89
40982;BME280;26708;50.304;19.028;2023-09-19T06:43:10;97612.09;;;20.27;64.92
40982;BME280;26708;50.304;19.028;2023-09-19T06:45:16;97648.94;;;20.48;65.14
40982;BME280;26708;50.304;19.028;2023-09-19T06:47:25;97574.28;;;20.06;64.57
40982;BME280;26708;50.304;19.028;2023-09-19T06:49:43;97649.81;;;20.48;64.76
40982;BME280;26708;50.304;19.028;2023-09-19T06:52:10;97567.38;;;19.88;64.76
40982;BME280;26708;50.304;19.028;2023-09-19T06:56:26;97544.09;;;19.76;65.18
40982;BME280;26708;50.304;19.028;2023-09-19T06:58:30;97499.53;;;19.50;65.00
40982;BME280;26708;50.304;19.028;2023-09-19T07:00:38;97652.13;;;20.39;65.14
40982;BME280;26708;50.304;19.028;2023-09-19T07:02:54;97674.63;;;20.49;65.23
40982;BME280;26708;50.304;19.028;2023-09-19T07:05:04;97680.63;;;20.53;65.48
40982;BME280;26708;50.304;19.028;2023-09-19T07:07:09;97700.16;;;20.51;65.00
40982;BME280;26708;50.304;19.028;2023-09-19T07:09:16;97691.28;;;20.53;65.34
40982;BME280;26708;50.304;19.028;2023-09-19T07:11:29;97687.94;;;20.49;65.38
40982;BME280;26708;50.304;19.028;2023-09-19T07:13:36;97523.34;;;19.52;65.18
40982;BME280;26708;50.304;19.028;2023-09-19T07:15:44;97506.31;;;19.40;65.33
40982;BME280;26708;50.304;19.028;2023-09-19T07:18:07;97679.59;;;20.40;65.23
40982;BME280;26708;50.304;19.028;2023-09-19T07:20:31;97577.34;;;19.83;65.32
40982;BME280;26708;50.304;19.028;2023-09-19T07:22:38;97716.06;;;20.53;65.11
40982;BME280;26708;50.304;19.028;2023-09-19T07:24:42;97710.91;;;20.50;65.04
40982;BME280;26708;50.304;19.028;2023-09-19T07:26:50;97606.78;;;19.63;65.35
40982;BME280;26708;50.304;19.028;2023-09-19T07:28:56;97689.94;;;20.13;65.29
40982;BME280;26708;50.304;19.028;2023-09-19T07:31:03;97690.81;;;20.29;65.08
40982;BME280;26708;50.304;19.028;2023-09-19T07:33:16;97568.38;;;19.53;65.20
40982;BME280;26708;50.304;19.028;2023-09-19T07:35:22;97683.28;;;20.22;65.33
40982;BME280;26708;50.304;19.028;2023-09-19T07:37:24;97714.50;;;20.34;65.28
40982;BME280;26708;50.304;19.028;2023-09-19T07:39:28;97706.97;;;20.26;65.68
40982;BME280;26708;50.304;19.028;2023-09-19T07:41:34;97734.56;;;20.39;65.53
40982;BME280;26708;50.304;19.028;2023-09-19T07:43:40;97747.53;;;20.45;65.46
40982;BME280;26708;50.304;19.028;2023-09-19T07:45:45;97747.47;;;20.47;65.76
40982;BME280;26708;50.304;19.028;2023-09-19T07:47:54;97619.47;;;19.58;65.54
40982;BME280;26708;50.304;19.028;2023-09-19T07:50:01;97496.50;;;18.93;65.52
40982;BME280;26708;50.304;19.028;2023-09-19T07:52:06;97742.28;;;20.43;65.65
40982;BME280;26708;50.304;19.028;2023-09-19T07:54:12;97730.53;;;20.32;65.35
40982;BME280;26708;50.304;19.028;2023-09-19T07:56:18;97640.22;;;19.67;65.34
40982;BME280;26708;50.304;19.028;2023-09-19T07:58:27;97775.22;;;20.58;65.45
40982;BME280;26708;50.304;19.028;2023-09-19T08:00:33;97783.97;;;20.60;65.41
40982;BME280;26708;50.304;19.028;2023-09-19T08:02:38;97582.50;;;19.38;65.49
40982;BME280;26708;50.304;19.028;2023-09-19T08:04:47;97755.84;;;20.39;65.39
40982;BME280;26708;50.304;19.028;2023-09-19T08:06:58;97710.19;;;20.16;65.60
40982;BME280;26708;50.304;19.028;2023-09-19T08:09:05;97532.88;;;19.06;65.40
40982;BME280;26708;50.304;19.028;2023-09-19T08:11:13;97575.34;;;19.23;65.53
40982;BME280;26708;50.304;19.028;2023-09-19T08:13:21;97710.25;;;19.82;65.49
40982;BME280;26708;50.304;19.028;2023-09-19T08:15:33;97816.66;;;20.62;65.48
40982;BME280;26708;50.304;19.028;2023-09-19T08:17:38;97752.41;;;20.22;65.38
40982;BME280;26708;50.304;19.028;2023-09-19T08:19:43;97706.47;;;19.87;65.39
40982;BME280;26708;50.304;19.028;2023-09-19T08:22:03;97700.34;;;19.85;65.58
40982;BME280;26708;50.304;19.028;2023-09-19T08:24:13;97749.19;;;20.15;65.14
40982;BME280;26708;50.304;19.028;2023-09-19T08:26:20;97826.78;;;20.56;65.39
40982;BME280;26708;50.304;19.028;2023-09-19T08:28:27;97647.34;;;19.50;65.74
40982;BME280;26708;50.304;19.028;2023-09-19T08:30:32;97839.16;;;20.55;65.70
40982;BME280;26708;50.304;19.028;2023-09-19T08:32:44;97621.72;;;19.16;65.82
40982;BME280;26708;50.304;19.028;2023-09-19T08:34:58;97800.53;;;20.33;66.06
40982;BME280;26708;50.304;19.028;2023-09-19T08:37:10;97722.56;;;19.83;65.71
40982;BME280;26708;50.304;19.028;2023-09-19T08:39:21;97841.81;;;20.55;65.97
40982;BME280;26708;50.304;19.028;2023-09-19T08:41:26;97635.78;;;19.18;66.02
40982;BME280;26708;50.304;19.028;2023-09-19T08:43:32;97854.06;;;20.59;65.90
40982;BME280;26708;50.304;19.028;2023-09-19T08:45:40;97791.16;;;20.26;66.04
40982;BME280;26708;50.304;19.028;2023-09-19T08:47:48;97847.97;;;20.57;66.23
40982;BME280;26708;50.304;19.028;2023-09-19T08:50:14;97777.66;;;20.13;65.57
40982;BME280;26708;50.304;19.028;2023-09-19T08:52:41;97704.25;;;19.61;66.05
40982;BME280;26708;50.304;19.028;2023-09-19T08:54:52;97847.09;;;20.57;66.42
40982;BME280;26708;50.304;19.028;2023-09-19T08:57:07;97669.50;;;19.33;66.25
40982;BME280;26708;50.304;19.028;2023-09-19T08:59:14;97847.03;;;20.58;66.44
40982;BME280;26708;50.304;19.028;2023-09-19T09:01:28;97859.38;;;20.59;66.51
40982;BME280;26708;50.304;19.028;2023-09-19T09:03:47;97858.44;;;20.60;66.56
40982;BME280;26708;50.304;19.028;2023-09-19T09:06:04;97860.22;;;20.59;66.66
40982;BME280;26708;50.304;19.028;2023-09-19T09:08:57;97611.53;;;19.07;66.87
40982;BME280;26708;50.304;19.028;2023-09-19T09:11:03;97709.66;;;19.77;66.85
40982;BME280;26708;50.304;19.028;2023-09-19T09:13:22;97816.84;;;20.42;66.70
40982;BME280;26708;50.304;19.028;2023-09-19T09:15:35;97832.31;;;20.51;66.84
40982;BME280;26708;50.304;19.028;2023-09-19T09:17:46;97829.91;;;20.47;66.66
40982;BME280;26708;50.304;19.028;2023-09-19T09:19:58;97780.59;;;20.24;66.60
40982;BME280;26708;50.304;19.028;2023-09-19T09:22:12;97859.41;;;20.74;66.50
40982;BME280;26708;50.304;19.028;2023-09-19T09:24:31;97844.47;;;20.55;66.56
40982;BME280;26708;50.304;19.028;2023-09-19T09:26:59;97800.09;;;20.40;66.77
40982;BME280;26708;50.304;19.028;2023-09-19T09:29:43;97865.09;;;20.84;66.42
40982;BME280;26708;50.304;19.028;2023-09-19T09:32:22;97783.56;;;20.35;66.23
40982;BME280;26708;50.304;19.028;2023-09-19T09:34:42;97870.06;;;20.90;66.17
40982;BME280;26708;50.304;19.028;2023-09-19T09:37:00;97878.75;;;20.93;65.85
40982;BME280;26708;50.304;19.028;2023-09-19T09:39:33;97876.84;;;20.95;65.71
40982;BME280;26708;50.304;19.028;2023-09-19T09:41:47;97856.16;;;20.85;65.58
40982;BME280;26708;50.304;19.028;2023-09-19T09:44:12;97683.38;;;19.88;65.51
40982;BME280;26708;50.304;19.028;2023-09-19T09:46:49;97839.59;;;20.80;65.75
40982;BME280;26708;50.304;19.028;2023-09-19T09:49:04;97737.03;;;20.11;65.41
40982;BME280;26708;50.304;19.028;2023-09-19T09:51:38;97876.00;;;21.10;65.58
40982;BME280;26708;50.304;19.028;2023-09-19T09:53:44;97841.75;;;20.89;65.48
40982;BME280;26708;50.304;19.028;2023-09-19T09:56:03;97883.81;;;21.13;65.23
40982;BME280;26708;50.304;19.028;2023-09-19T09:58:26;97887.28;;;21.15;65.21
40982;BME280;26708;50.304;19.028;2023-09-19T10:01:03;97814.97;;;20.76;65.19
40982;BME280;26708;50.304;19.028;2023-09-19T10:03:34;97673.22;;;19.79;64.90
40982;BME280;26708;50.304;19.028;2023-09-19T10:05:53;97760.06;;;20.43;64.70
40982;BME280;26708;50.304;19.028;2023-09-19T10:08:12;97644.31;;;19.73;64.59
40982;BME280;26708;50.304;19.028;2023-09-19T10:10:35;97863.72;;;21.08;64.82
40982;BME280;26708;50.304;19.028;2023-09-19T10:13:05;97892.25;;;21.21;64.66
40982;BME280;26708;50.304;19.028;2023-09-19T10:15:20;97879.38;;;21.14;64.61
40982;BME280;26708;50.304;19.028;2023-09-19T10:17:54;97621.44;;;19.55;64.01
40982;BME280;26708;50.304;19.028;2023-09-19T10:20:01;97829.81;;;20.80;64.27
40982;BME280;26708;50.304;19.028;2023-09-19T10:22:30;97902.03;;;21.21;64.06
40982;BME280;26708;50.304;19.028;2023-09-19T10:24:39;97648.00;;;19.70;63.86
40982;BME280;26708;50.304;19.028;2023-09-19T10:26:50;97652.63;;;19.67;63.58
40982;BME280;26708;50.304;19.028;2023-09-19T10:29:10;97895.16;;;21.17;63.42
40982;BME280;26708;50.304;19.028;2023-09-19T10:31:20;97833.03;;;20.70;63.34
40982;BME280;26708;50.304;19.028;2023-09-19T10:33:39;97774.63;;;20.36;63.56
40982;BME280;26708;50.304;19.028;2023-09-19T10:35:48;97927.22;;;21.15;63.18
40982;BME280;26708;50.304;19.028;2023-09-19T10:38:04;97915.69;;;21.15;63.47
40982;BME280;26708;50.304;19.028;2023-09-19T10:40:16;97768.00;;;20.28;63.43
40982;BME280;26708;50.304;19.028;2023-09-19T10:42:42;97872.69;;;20.74;63.92
40982;BME280;26708;50.304;19.028;2023-09-19T10:44:55;97931.75;;;21.13;64.51
40982;BME280;26708;50.304;19.028;2023-09-19T10:47:12;97780.25;;;20.15;64.59
40982;BME280;26708;50.304;19.028;2023-09-19T10:51:42;97814.34;;;20.39;63.79
40982;BME280;26708;50.304;19.028;2023-09-19T10:54:06;97828.88;;;20.49;63.72
40982;BME280;26708;50.304;19.028;2023-09-19T10:56:24;97879.91;;;20.72;63.31
40982;BME280;26708;50.304;19.028;2023-09-19T10:59:05;97808.75;;;20.28;62.82
40982;BME280;26708;50.304;19.028;2023-09-19T11:01:15;97658.88;;;19.33;63.03
40982;BME280;26708;50.304;19.028;2023-09-19T11:03:26;97891.13;;;20.62;63.06
40982;BME280;26708;50.304;19.028;2023-09-19T11:05:36;97946.63;;;20.85;63.13
40982;BME280;26708;50.304;19.028;2023-09-19T11:07:59;97945.16;;;20.79;63.07
40982;BME280;26708;50.304;19.028;2023-09-19T11:10:07;97861.91;;;20.28;63.50
40982;BME280;26708;50.304;19.028;2023-09-19T11:12:48;97946.44;;;20.72;63.42
40982;BME280;26708;50.304;19.028;2023-09-19T11:14:55;97905.38;;;20.44;63.09
40982;BME280;26708;50.304;19.028;2023-09-19T11:17:33;97925.72;;;20.45;63.28
40982;BME280;26708;50.304;19.028;2023-09-19T11:23:22;97948.38;;;20.52;63.48
40982;BME280;26708;50.304;19.028;2023-09-19T11:25:42;97816.38;;;19.68;63.56
40982;BME280;26708;50.304;19.028;2023-09-19T11:30:36;97783.63;;;19.33;64.10
40982;BME280;26708;50.304;19.028;2023-09-19T11:36:01;97948.75;;;20.44;64.23
40982;BME280;26708;50.304;19.028;2023-09-19T11:38:10;97975.06;;;20.50;64.62
40982;BME280;26708;50.304;19.028;2023-09-19T11:40:17;97912.38;;;20.30;64.97
40982;BME280;26708;50.304;19.028;2023-09-19T11:42:45;97959.75;;;20.56;65.06
40982;BME280;26708;50.304;19.028;2023-09-19T11:44:52;97871.47;;;19.98;65.04
40982;BME280;26708;50.304;19.028;2023-09-19T11:47:06;97953.50;;;20.57;64.90
40982;BME280;26708;50.304;19.028;2023-09-19T11:49:16;97965.91;;;20.56;65.03